sensor_id;sensor_type;location;lat;lon;timestamp;P1;durP1;ratioP1;P2;durP2;ratioP2
52015;SDS011;38032;53.326;6.472;2023-04-01T00:00:50;9.20;;;6.60;;
52015;SDS011;38032;53.326;6.472;2023-04-01T00:03:17;8.52;;;6.45;;
52015;SDS011;38032;53.326;6.472;2023-04-01T00:05:43;9.20;;;6.63;;
52015;SDS011;38032;53.326;6.472;2023-04-01T00:08:10;7.90;;;5.78;;
52015;SDS011;38032;53.326;6.472;2023-04-01T00:10:36;8.85;;;6.97;;
52015;SDS011;38032;53.326;6.472;2023-04-01T00:13:02;7.70;;;6.30;;
52015;SDS011;38032;53.326;6.472;2023-04-01T00:15:28;9.02;;;6.90;;
52015;SDS011;38032;53.326;6.472;2023-04-01T00:17:54;9.23;;;6.35;;
52015;SDS011;38032;53.326;6.472;2023-04-01T00:20:20;9.13;;;6.78;;
52015;SDS011;38032;53.326;6.472;2023-04-01T00:22:46;8.02;;;6.10;;
52015;SDS011;38032;53.326;6.472;2023-04-01T00:25:12;8.90;;;6.10;;
52015;SDS011;38032;53.326;6.472;2023-04-01T00:27:38;10.23;;;6.50;;
52015;SDS011;38032;53.326;6.472;2023-04-01T00:30:05;8.13;;;6.32;;
52015;SDS011;38032;53.326;6.472;2023-04-01T00:32:31;9.85;;;6.65;;
52015;SDS011;38032;53.326;6.472;2023-04-01T00:34:57;8.05;;;6.65;;
52015;SDS011;38032;53.326;6.472;2023-04-01T00:37:25;8.88;;;6.40;;
52015;SDS011;38032;53.326;6.472;2023-04-01T00:39:51;8.10;;;6.63;;
52015;SDS011;38032;53.326;6.472;2023-04-01T00:42:17;7.32;;;6.20;;
52015;SDS011;38032;53.326;6.472;2023-04-01T00:44:45;7.93;;;6.40;;
52015;SDS011;38032;53.326;6.472;2023-04-01T00:47:17;9.13;;;6.50;;
52015;SDS011;38032;53.326;6.472;2023-04-01T00:49:44;8.15;;;6.20;;
52015;SDS011;38032;53.326;6.472;2023-04-01T00:52:14;9.07;;;6.50;;
52015;SDS011;38032;53.326;6.472;2023-04-01T00:54:44;8.70;;;6.22;;
52015;SDS011;38032;53.326;6.472;2023-04-01T00:57:14;9.25;;;6.80;;
52015;SDS011;38032;53.326;6.472;2023-04-01T00:59:46;9.02;;;6.68;;
52015;SDS011;38032;53.326;6.472;2023-04-01T01:02:15;9.77;;;7.35;;
52015;SDS011;38032;53.326;6.472;2023-04-01T01:04:42;10.15;;;7.00;;
52015;SDS011;38032;53.326;6.472;2023-04-01T01:10:10;8.45;;;6.47;;
52015;SDS011;38032;53.326;6.472;2023-04-01T01:12:40;9.82;;;7.10;;
52015;SDS011;38032;53.326;6.472;2023-04-01T01:23:39;9.60;;;7.22;;
52015;SDS011;38032;53.326;6.472;2023-04-01T01:26:24;9.23;;;6.68;;
52015;SDS011;38032;53.326;6.472;2023-04-01T01:29:13;9.25;;;6.50;;
52015;SDS011;38032;53.326;6.472;2023-04-01T01:34:24;10.38;;;6.45;;
52015;SDS011;38032;53.326;6.472;2023-04-01T01:36:58;7.72;;;5.95;;
52015;SDS011;38032;53.326;6.472;2023-04-01T01:39:30;7.25;;;5.65;;
52015;SDS011;38032;53.326;6.472;2023-04-01T01:41:58;7.78;;;6.00;;
52015;SDS011;38032;53.326;6.472;2023-04-01T01:44:29;8.50;;;5.82;;
52015;SDS011;38032;53.326;6.472;2023-04-01T01:46:57;9.20;;;6.15;;
52015;SDS011;38032;53.326;6.472;2023-04-01T01:49:25;8.63;;;6.47;;
52015;SDS011;38032;53.326;6.472;2023-04-01T01:51:55;9.88;;;6.90;;
52015;SDS011;38032;53.326;6.472;2023-04-01T01:54:21;9.18;;;6.70;;
52015;SDS011;38032;53.326;6.472;2023-04-01T01:56:48;10.07;;;7.43;;
52015;SDS011;38032;53.326;6.472;2023-04-01T01:59:17;9.07;;;7.63;;
52015;SDS011;38032;53.326;6.472;2023-04-01T02:01:47;11.25;;;7.97;;
52015;SDS011;38032;53.326;6.472;2023-04-01T02:04:15;10.20;;;7.85;;
52015;SDS011;38032;53.326;6.472;2023-04-01T02:06:46;10.60;;;7.85;;
52015;SDS011;38032;53.326;6.472;2023-04-01T02:09:23;10.00;;;7.53;;
52015;SDS011;38032;53.326;6.472;2023-04-01T02:11:51;10.65;;;8.32;;
52015;SDS011;38032;53.326;6.472;2023-04-01T02:14:26;11.13;;;7.68;;
52015;SDS011;38032;53.326;6.472;2023-04-01T02:17:05;11.85;;;8.07;;
52015;SDS011;38032;53.326;6.472;2023-04-01T02:19:37;11.85;;;8.45;;
52015;SDS011;38032;53.326;6.472;2023-04-01T02:22:10;13.98;;;8.98;;
52015;SDS011;38032;53.326;6.472;2023-04-01T02:24:39;10.75;;;8.38;;
52015;SDS011;38032;53.326;6.472;2023-04-01T02:27:07;10.73;;;8.30;;
52015;SDS011;38032;53.326;6.472;2023-04-01T02:29:35;11.82;;;8.27;;
52015;SDS011;38032;53.326;6.472;2023-04-01T02:32:01;12.80;;;8.77;;
52015;SDS011;38032;53.326;6.472;2023-04-01T02:34:28;12.27;;;9.63;;
52015;SDS011;38032;53.326;6.472;2023-04-01T02:36:54;13.32;;;9.05;;
52015;SDS011;38032;53.326;6.472;2023-04-01T02:39:21;12.70;;;9.27;;
52015;SDS011;38032;53.326;6.472;2023-04-01T02:41:48;12.30;;;9.27;;
52015;SDS011;38032;53.326;6.472;2023-04-01T02:44:14;14.27;;;9.95;;
52015;SDS011;38032;53.326;6.472;2023-04-01T02:46:41;13.98;;;9.25;;
52015;SDS011;38032;53.326;6.472;2023-04-01T02:49:06;11.70;;;9.52;;
52015;SDS011;38032;53.326;6.472;2023-04-01T02:51:33;11.48;;;9.35;;
52015;SDS011;38032;53.326;6.472;2023-04-01T02:53:59;12.63;;;9.88;;
52015;SDS011;38032;53.326;6.472;2023-04-01T02:56:25;14.02;;;9.98;;
52015;SDS011;38032;53.326;6.472;2023-04-01T02:58:51;15.90;;;10.38;;
52015;SDS011;38032;53.326;6.472;2023-04-01T03:01:18;15.40;;;10.40;;
52015;SDS011;38032;53.326;6.472;2023-04-01T03:03:44;14.88;;;10.20;;
52015;SDS011;38032;53.326;6.472;2023-04-01T03:06:12;13.63;;;10.13;;
52015;SDS011;38032;53.326;6.472;2023-04-01T03:08:39;13.07;;;10.15;;
52015;SDS011;38032;53.326;6.472;2023-04-01T03:11:05;14.65;;;10.95;;
52015;SDS011;38032;53.326;6.472;2023-04-01T03:13:31;16.42;;;10.70;;
52015;SDS011;38032;53.326;6.472;2023-04-01T03:15:57;15.95;;;11.35;;
52015;SDS011;38032;53.326;6.472;2023-04-01T03:18:23;16.90;;;10.88;;
52015;SDS011;38032;53.326;6.472;2023-04-01T03:20:49;15.43;;;11.10;;
52015;SDS011;38032;53.326;6.472;2023-04-01T03:23:15;16.02;;;11.40;;
52015;SDS011;38032;53.326;6.472;2023-04-01T03:25:44;15.32;;;10.82;;
52015;SDS011;38032;53.326;6.472;2023-04-01T03:28:10;15.32;;;10.98;;
52015;SDS011;38032;53.326;6.472;2023-04-01T03:30:37;15.88;;;11.50;;
52015;SDS011;38032;53.326;6.472;2023-04-01T03:33:03;18.08;;;11.95;;
52015;SDS011;38032;53.326;6.472;2023-04-01T03:35:29;15.10;;;11.55;;
52015;SDS011;38032;53.326;6.472;2023-04-01T03:37:55;16.77;;;11.55;;
52015;SDS011;38032;53.326;6.472;2023-04-01T03:40:21;14.93;;;10.93;;
52015;SDS011;38032;53.326;6.472;2023-04-01T03:42:47;16.25;;;11.52;;
52015;SDS011;38032;53.326;6.472;2023-04-01T03:45:14;15.98;;;11.50;;
52015;SDS011;38032;53.326;6.472;2023-04-01T03:47:40;16.38;;;11.15;;
52015;SDS011;38032;53.326;6.472;2023-04-01T03:50:06;16.13;;;11.32;;
52015;SDS011;38032;53.326;6.472;2023-04-01T03:52:33;17.42;;;11.90;;
52015;SDS011;38032;53.326;6.472;2023-04-01T03:55:00;18.70;;;12.48;;
52015;SDS011;38032;53.326;6.472;2023-04-01T03:57:26;17.90;;;12.27;;
52015;SDS011;38032;53.326;6.472;2023-04-01T03:59:52;20.23;;;12.95;;
52015;SDS011;38032;53.326;6.472;2023-04-01T04:02:18;16.70;;;11.93;;
52015;SDS011;38032;53.326;6.472;2023-04-01T04:04:45;17.92;;;12.10;;
52015;SDS011;38032;53.326;6.472;2023-04-01T04:07:11;18.25;;;12.63;;
52015;SDS011;38032;53.326;6.472;2023-04-01T04:09:37;18.08;;;12.27;;
52015;SDS011;38032;53.326;6.472;2023-04-01T04:12:03;16.70;;;11.85;;
52015;SDS011;38032;53.326;6.472;2023-04-01T04:14:30;16.80;;;12.18;;
52015;SDS011;38032;53.326;6.472;2023-04-01T04:16:57;17.98;;;12.10;;
52015;SDS011;38032;53.326;6.472;2023-04-01T04:19:23;17.20;;;12.27;;
52015;SDS011;38032;53.326;6.472;2023-04-01T04:21:49;17.83;;;12.73;;
52015;SDS011;38032;53.326;6.472;2023-04-01T04:24:15;18.10;;;12.55;;
52015;SDS011;38032;53.326;6.472;2023-04-01T04:26:40;17.70;;;12.85;;
52015;SDS011;38032;53.326;6.472;2023-04-01T04:29:06;17.88;;;12.65;;
52015;SDS011;38032;53.326;6.472;2023-04-01T04:31:32;19.88;;;13.63;;
52015;SDS011;38032;53.326;6.472;2023-04-01T04:33:59;19.67;;;13.68;;
52015;SDS011;38032;53.326;6.472;2023-04-01T04:36:26;19.27;;;13.27;;
52015;SDS011;38032;53.326;6.472;2023-04-01T04:38:53;17.52;;;13.35;;
52015;SDS011;38032;53.326;6.472;2023-04-01T04:41:19;19.70;;;13.38;;
52015;SDS011;38032;53.326;6.472;2023-04-01T04:43:49;18.02;;;13.10;;
52015;SDS011;38032;53.326;6.472;2023-04-01T04:46:16;19.13;;;13.32;;
52015;SDS011;38032;53.326;6.472;2023-04-01T04:48:42;18.73;;;12.60;;
52015;SDS011;38032;53.326;6.472;2023-04-01T04:51:12;19.45;;;12.45;;
52015;SDS011;38032;53.326;6.472;2023-04-01T04:53:39;20.02;;;13.02;;
52015;SDS011;38032;53.326;6.472;2023-04-01T04:56:05;18.83;;;12.95;;
52015;SDS011;38032;53.326;6.472;2023-04-01T04:58:31;18.42;;;13.13;;
52015;SDS011;38032;53.326;6.472;2023-04-01T05:00:57;19.85;;;13.10;;
52015;SDS011;38032;53.326;6.472;2023-04-01T05:03:23;20.15;;;13.43;;
52015;SDS011;38032;53.326;6.472;2023-04-01T05:05:50;21.63;;;14.02;;
52015;SDS011;38032;53.326;6.472;2023-04-01T05:08:17;21.83;;;13.43;;
52015;SDS011;38032;53.326;6.472;2023-04-01T05:10:43;20.30;;;13.18;;
52015;SDS011;38032;53.326;6.472;2023-04-01T05:13:10;18.65;;;13.30;;
52015;SDS011;38032;53.326;6.472;2023-04-01T05:15:36;19.02;;;13.05;;
52015;SDS011;38032;53.326;6.472;2023-04-01T05:18:02;18.85;;;12.85;;
52015;SDS011;38032;53.326;6.472;2023-04-01T05:20:28;19.17;;;13.13;;
52015;SDS011;38032;53.326;6.472;2023-04-01T05:22:56;16.77;;;12.57;;
52015;SDS011;38032;53.326;6.472;2023-04-01T05:25:22;18.73;;;13.48;;
52015;SDS011;38032;53.326;6.472;2023-04-01T05:27:48;17.38;;;12.07;;
52015;SDS011;38032;53.326;6.472;2023-04-01T05:30:14;22.60;;;12.88;;
52015;SDS011;38032;53.326;6.472;2023-04-01T05:32:40;20.63;;;12.77;;
52015;SDS011;38032;53.326;6.472;2023-04-01T05:35:06;19.92;;;12.45;;
52015;SDS011;38032;53.326;6.472;2023-04-01T05:37:33;16.95;;;11.90;;
52015;SDS011;38032;53.326;6.472;2023-04-01T05:40:00;17.88;;;12.30;;
52015;SDS011;38032;53.326;6.472;2023-04-01T05:42:26;18.63;;;12.98;;
52015;SDS011;38032;53.326;6.472;2023-04-01T05:44:52;19.17;;;13.38;;
52015;SDS011;38032;53.326;6.472;2023-04-01T05:47:18;19.15;;;13.02;;
52015;SDS011;38032;53.326;6.472;2023-04-01T05:49:44;18.63;;;12.65;;
52015;SDS011;38032;53.326;6.472;2023-04-01T05:52:10;19.33;;;13.38;;
52015;SDS011;38032;53.326;6.472;2023-04-01T05:54:35;19.40;;;13.40;;
52015;SDS011;38032;53.326;6.472;2023-04-01T05:57:01;19.40;;;14.13;;
52015;SDS011;38032;53.326;6.472;2023-04-01T05:59:28;20.67;;;13.85;;
52015;SDS011;38032;53.326;6.472;2023-04-01T06:01:56;20.35;;;14.35;;
52015;SDS011;38032;53.326;6.472;2023-04-01T06:04:22;23.45;;;14.90;;
52015;SDS011;38032;53.326;6.472;2023-04-01T06:06:49;19.85;;;14.35;;
52015;SDS011;38032;53.326;6.472;2023-04-01T06:09:17;22.15;;;14.80;;
52015;SDS011;38032;53.326;6.472;2023-04-01T06:12:01;22.55;;;14.82;;
52015;SDS011;38032;53.326;6.472;2023-04-01T06:14:54;21.50;;;14.93;;
52015;SDS011;38032;53.326;6.472;2023-04-01T06:17:43;20.17;;;14.88;;
52015;SDS011;38032;53.326;6.472;2023-04-01T06:20:24;21.90;;;15.65;;
52015;SDS011;38032;53.326;6.472;2023-04-01T06:23:09;23.95;;;16.38;;
52015;SDS011;38032;53.326;6.472;2023-04-01T06:31:17;23.42;;;15.70;;
52015;SDS011;38032;53.326;6.472;2023-04-01T06:33:58;22.38;;;16.00;;
52015;SDS011;38032;53.326;6.472;2023-04-01T06:36:39;23.58;;;16.20;;
52015;SDS011;38032;53.326;6.472;2023-04-01T06:39:12;21.23;;;15.18;;
52015;SDS011;38032;53.326;6.472;2023-04-01T06:44:23;22.90;;;15.70;;
52015;SDS011;38032;53.326;6.472;2023-04-01T06:47:12;22.05;;;15.98;;
52015;SDS011;38032;53.326;6.472;2023-04-01T06:52:34;20.52;;;15.38;;
52015;SDS011;38032;53.326;6.472;2023-04-01T06:57:52;23.52;;;15.68;;
52015;SDS011;38032;53.326;6.472;2023-04-01T07:00:26;21.17;;;14.70;;
52015;SDS011;38032;53.326;6.472;2023-04-01T07:03:00;21.70;;;14.93;;
52015;SDS011;38032;53.326;6.472;2023-04-01T07:05:44;23.00;;;16.08;;
52015;SDS011;38032;53.326;6.472;2023-04-01T07:08:13;19.98;;;13.93;;
52015;SDS011;38032;53.326;6.472;2023-04-01T07:10:47;20.77;;;15.23;;
52015;SDS011;38032;53.326;6.472;2023-04-01T07:13:15;21.50;;;14.60;;
52015;SDS011;38032;53.326;6.472;2023-04-01T07:15:54;20.45;;;14.32;;
52015;SDS011;38032;53.326;6.472;2023-04-01T07:18:29;21.25;;;14.98;;
52015;SDS011;38032;53.326;6.472;2023-04-01T07:20:59;18.02;;;13.63;;
52015;SDS011;38032;53.326;6.472;2023-04-01T07:23:28;19.42;;;13.85;;
52015;SDS011;38032;53.326;6.472;2023-04-01T07:26:14;19.48;;;13.80;;
52015;SDS011;38032;53.326;6.472;2023-04-01T07:28:43;20.90;;;14.05;;
52015;SDS011;38032;53.326;6.472;2023-04-01T07:33:53;24.50;;;14.85;;
52015;SDS011;38032;53.326;6.472;2023-04-01T07:39:08;20.45;;;12.82;;
52015;SDS011;38032;53.326;6.472;2023-04-01T07:41:54;17.15;;;12.73;;
52015;SDS011;38032;53.326;6.472;2023-04-01T07:44:33;18.52;;;11.82;;
52015;SDS011;38032;53.326;6.472;2023-04-01T07:47:19;16.50;;;10.70;;
52015;SDS011;38032;53.326;6.472;2023-04-01T07:53:01;16.77;;;10.15;;
52015;SDS011;38032;53.326;6.472;2023-04-01T07:55:45;16.35;;;10.30;;
52015;SDS011;38032;53.326;6.472;2023-04-01T07:58:32;15.27;;;9.68;;
52015;SDS011;38032;53.326;6.472;2023-04-01T08:01:20;13.43;;;8.88;;
52015;SDS011;38032;53.326;6.472;2023-04-01T08:04:07;13.65;;;8.05;;
52015;SDS011;38032;53.326;6.472;2023-04-01T08:11:54;9.10;;;6.28;;
52015;SDS011;38032;53.326;6.472;2023-04-01T08:14:42;9.45;;;6.25;;
52015;SDS011;38032;53.326;6.472;2023-04-01T08:17:28;8.40;;;5.50;;
52015;SDS011;38032;53.326;6.472;2023-04-01T08:20:08;7.53;;;4.30;;
52015;SDS011;38032;53.326;6.472;2023-04-01T08:22:42;7.35;;;4.55;;
52015;SDS011;38032;53.326;6.472;2023-04-01T08:25:16;6.63;;;3.85;;
52015;SDS011;38032;53.326;6.472;2023-04-01T08:27:48;7.18;;;4.50;;
52015;SDS011;38032;53.326;6.472;2023-04-01T08:30:20;7.97;;;4.57;;
52015;SDS011;38032;53.326;6.472;2023-04-01T08:33:00;7.72;;;4.80;;
52015;SDS011;38032;53.326;6.472;2023-04-01T08:35:49;7.95;;;5.00;;
52015;SDS011;38032;53.326;6.472;2023-04-01T08:38:29;6.53;;;4.72;;
52015;SDS011;38032;53.326;6.472;2023-04-01T08:43:51;7.03;;;4.60;;
52015;SDS011;38032;53.326;6.472;2023-04-01T08:49:07;6.05;;;4.57;;
52015;SDS011;38032;53.326;6.472;2023-04-01T08:54:34;7.18;;;5.25;;
52015;SDS011;38032;53.326;6.472;2023-04-01T08:57:13;8.35;;;5.35;;
52015;SDS011;38032;53.326;6.472;2023-04-01T08:59:57;8.15;;;5.88;;
52015;SDS011;38032;53.326;6.472;2023-04-01T09:02:41;8.20;;;5.80;;
52015;SDS011;38032;53.326;6.472;2023-04-01T09:08:31;7.90;;;6.57;;
52015;SDS011;38032;53.326;6.472;2023-04-01T09:16:30;5.97;;;4.88;;
52015;SDS011;38032;53.326;6.472;2023-04-01T09:30:03;6.07;;;4.40;;
52015;SDS011;38032;53.326;6.472;2023-04-01T09:32:50;4.72;;;3.80;;
52015;SDS011;38032;53.326;6.472;2023-04-01T09:38:19;6.53;;;4.60;;
52015;SDS011;38032;53.326;6.472;2023-04-01T09:40:54;5.97;;;4.05;;
52015;SDS011;38032;53.326;6.472;2023-04-01T09:43:46;6.68;;;4.18;;
52015;SDS011;38032;53.326;6.472;2023-04-01T09:46:33;6.65;;;4.32;;
52015;SDS011;38032;53.326;6.472;2023-04-01T10:02:52;6.55;;;3.50;;
52015;SDS011;38032;53.326;6.472;2023-04-01T10:05:54;6.00;;;4.35;;
52015;SDS011;38032;53.326;6.472;2023-04-01T10:08:33;6.65;;;4.35;;
52015;SDS011;38032;53.326;6.472;2023-04-01T10:16:59;5.47;;;4.32;;
52015;SDS011;38032;53.326;6.472;2023-04-01T10:19:49;6.15;;;3.80;;
52015;SDS011;38032;53.326;6.472;2023-04-01T10:25:26;5.10;;;3.72;;
52015;SDS011;38032;53.326;6.472;2023-04-01T10:28:28;6.75;;;4.15;;
52015;SDS011;38032;53.326;6.472;2023-04-01T10:31:26;5.00;;;3.05;;
52015;SDS011;38032;53.326;6.472;2023-04-01T10:34:05;6.55;;;3.40;;
52015;SDS011;38032;53.326;6.472;2023-04-01T10:36:56;4.45;;;2.97;;
52015;SDS011;38032;53.326;6.472;2023-04-01T10:42:22;4.93;;;2.97;;
52015;SDS011;38032;53.326;6.472;2023-04-01T10:53:15;3.75;;;2.80;;
52015;SDS011;38032;53.326;6.472;2023-04-01T11:25:03;5.07;;;2.97;;
52015;SDS011;38032;53.326;6.472;2023-04-01T11:33:12;4.32;;;2.92;;
52015;SDS011;38032;53.326;6.472;2023-04-01T11:38:26;3.45;;;2.30;;
52015;SDS011;38032;53.326;6.472;2023-04-01T11:41:23;5.38;;;2.50;;
52015;SDS011;38032;53.326;6.472;2023-04-01T11:44:07;3.83;;;2.67;;
52015;SDS011;38032;53.326;6.472;2023-04-01T11:49:33;3.65;;;2.40;;
52015;SDS011;38032;53.326;6.472;2023-04-01T11:52:14;3.92;;;2.50;;
52015;SDS011;38032;53.326;6.472;2023-04-01T11:55:19;4.45;;;2.70;;
52015;SDS011;38032;53.326;6.472;2023-04-01T12:00:37;3.33;;;2.30;;
52015;SDS011;38032;53.326;6.472;2023-04-01T12:03:30;2.78;;;2.00;;
52015;SDS011;38032;53.326;6.472;2023-04-01T12:08:46;4.75;;;2.88;;
52015;SDS011;38032;53.326;6.472;2023-04-01T12:11:28;4.55;;;2.58;;
52015;SDS011;38032;53.326;6.472;2023-04-01T12:14:16;3.47;;;2.13;;
52015;SDS011;38032;53.326;6.472;2023-04-01T12:16:55;5.10;;;2.60;;
52015;SDS011;38032;53.326;6.472;2023-04-01T12:19:32;3.53;;;2.20;;
52015;SDS011;38032;53.326;6.472;2023-04-01T12:22:10;4.03;;;2.67;;
52015;SDS011;38032;53.326;6.472;2023-04-01T12:36:05;4.70;;;2.60;;
52015;SDS011;38032;53.326;6.472;2023-04-01T12:41:39;3.20;;;2.28;;
52015;SDS011;38032;53.326;6.472;2023-04-01T12:44:41;3.83;;;2.55;;
52015;SDS011;38032;53.326;6.472;2023-04-01T12:47:32;3.95;;;2.65;;
52015;SDS011;38032;53.326;6.472;2023-04-01T12:50:34;4.18;;;2.75;;
52015;SDS011;38032;53.326;6.472;2023-04-01T12:56:11;5.20;;;2.58;;
52015;SDS011;38032;53.326;6.472;2023-04-01T12:58:59;4.57;;;2.50;;
52015;SDS011;38032;53.326;6.472;2023-04-01T13:01:50;3.20;;;1.90;;
52015;SDS011;38032;53.326;6.472;2023-04-01T13:04:31;3.35;;;2.40;;
52015;SDS011;38032;53.326;6.472;2023-04-01T13:09:53;3.25;;;2.40;;
52015;SDS011;38032;53.326;6.472;2023-04-01T13:15:35;4.68;;;2.38;;
52015;SDS011;38032;53.326;6.472;2023-04-01T13:18:17;4.65;;;2.42;;
52015;SDS011;38032;53.326;6.472;2023-04-01T13:21:04;3.65;;;2.70;;
52015;SDS011;38032;53.326;6.472;2023-04-01T13:23:33;4.05;;;2.40;;
52015;SDS011;38032;53.326;6.472;2023-04-01T13:31:34;3.40;;;2.22;;
52015;SDS011;38032;53.326;6.472;2023-04-01T13:34:25;3.78;;;2.33;;
52015;SDS011;38032;53.326;6.472;2023-04-01T13:37:05;3.58;;;2.42;;
52015;SDS011;38032;53.326;6.472;2023-04-01T13:42:24;3.53;;;2.20;;
52015;SDS011;38032;53.326;6.472;2023-04-01T13:45:21;4.22;;;2.28;;
52015;SDS011;38032;53.326;6.472;2023-04-01T13:48:00;4.70;;;2.58;;
52015;SDS011;38032;53.326;6.472;2023-04-01T13:50:56;2.97;;;2.03;;
52015;SDS011;38032;53.326;6.472;2023-04-01T13:53:53;3.40;;;2.15;;
52015;SDS011;38032;53.326;6.472;2023-04-01T13:56:40;3.75;;;2.22;;
52015;SDS011;38032;53.326;6.472;2023-04-01T14:01:44;4.32;;;2.20;;
52015;SDS011;38032;53.326;6.472;2023-04-01T14:20:39;3.47;;;2.38;;
52015;SDS011;38032;53.326;6.472;2023-04-01T14:23:37;3.05;;;2.30;;
52015;SDS011;38032;53.326;6.472;2023-04-01T14:26:16;3.35;;;2.10;;
52015;SDS011;38032;53.326;6.472;2023-04-01T14:31:45;3.75;;;2.67;;
52015;SDS011;38032;53.326;6.472;2023-04-01T14:45:17;3.97;;;2.65;;
52015;SDS011;38032;53.326;6.472;2023-04-01T14:47:53;4.72;;;2.70;;
52015;SDS011;38032;53.326;6.472;2023-04-01T14:50:41;3.70;;;2.70;;
52015;SDS011;38032;53.326;6.472;2023-04-01T14:53:12;4.57;;;3.28;;
52015;SDS011;38032;53.326;6.472;2023-04-01T14:55:50;4.53;;;3.10;;
52015;SDS011;38032;53.326;6.472;2023-04-01T14:58:19;4.85;;;3.13;;
52015;SDS011;38032;53.326;6.472;2023-04-01T15:00:54;6.30;;;3.45;;
52015;SDS011;38032;53.326;6.472;2023-04-01T15:03:39;6.57;;;3.40;;
52015;SDS011;38032;53.326;6.472;2023-04-01T15:08:54;5.05;;;3.05;;
52015;SDS011;38032;53.326;6.472;2023-04-01T15:17:03;6.07;;;3.70;;
52015;SDS011;38032;53.326;6.472;2023-04-01T15:22:53;7.45;;;4.18;;
52015;SDS011;38032;53.326;6.472;2023-04-01T15:25:41;9.52;;;4.65;;
52015;SDS011;38032;53.326;6.472;2023-04-01T15:31:14;8.13;;;5.32;;
52015;SDS011;38032;53.326;6.472;2023-04-01T15:33:48;8.10;;;5.03;;
52015;SDS011;38032;53.326;6.472;2023-04-01T15:38:53;12.65;;;5.82;;
52015;SDS011;38032;53.326;6.472;2023-04-01T15:41:37;8.18;;;5.75;;
52015;SDS011;38032;53.326;6.472;2023-04-01T15:44:36;11.07;;;5.10;;
52015;SDS011;38032;53.326;6.472;2023-04-01T15:55:19;6.97;;;4.97;;
52015;SDS011;38032;53.326;6.472;2023-04-01T15:57:55;8.70;;;5.18;;
52015;SDS011;38032;53.326;6.472;2023-04-01T16:00:49;10.13;;;5.03;;
52015;SDS011;38032;53.326;6.472;2023-04-01T16:06:27;8.77;;;5.30;;
52015;SDS011;38032;53.326;6.472;2023-04-01T16:12:04;9.65;;;5.22;;
52015;SDS011;38032;53.326;6.472;2023-04-01T16:14:48;8.15;;;4.53;;
52015;SDS011;38032;53.326;6.472;2023-04-01T16:17:28;8.07;;;4.63;;
52015;SDS011;38032;53.326;6.472;2023-04-01T16:22:38;10.45;;;5.20;;
52015;SDS011;38032;53.326;6.472;2023-04-01T16:28:07;10.43;;;5.28;;
52015;SDS011;38032;53.326;6.472;2023-04-01T16:30:55;8.37;;;5.20;;
52015;SDS011;38032;53.326;6.472;2023-04-01T16:33:40;8.30;;;5.10;;
52015;SDS011;38032;53.326;6.472;2023-04-01T16:38:50;11.80;;;5.13;;
52015;SDS011;38032;53.326;6.472;2023-04-01T16:41:36;11.65;;;5.38;;
52015;SDS011;38032;53.326;6.472;2023-04-01T16:44:18;6.80;;;4.85;;
52015;SDS011;38032;53.326;6.472;2023-04-01T16:46:50;8.70;;;5.00;;
52015;SDS011;38032;53.326;6.472;2023-04-01T16:49:25;10.50;;;4.97;;
52015;SDS011;38032;53.326;6.472;2023-04-01T16:52:00;9.27;;;5.53;;
52015;SDS011;38032;53.326;6.472;2023-04-01T16:57:21;8.77;;;5.65;;
52015;SDS011;38032;53.326;6.472;2023-04-01T16:59:54;9.25;;;5.28;;
52015;SDS011;38032;53.326;6.472;2023-04-01T17:02:23;9.27;;;4.97;;
52015;SDS011;38032;53.326;6.472;2023-04-01T17:04:58;11.85;;;5.30;;
52015;SDS011;38032;53.326;6.472;2023-04-01T17:07:38;11.57;;;5.18;;
52015;SDS011;38032;53.326;6.472;2023-04-01T17:18:58;10.52;;;6.00;;
52015;SDS011;38032;53.326;6.472;2023-04-01T17:24:25;8.43;;;5.53;;
52015;SDS011;38032;53.326;6.472;2023-04-01T17:27:19;10.38;;;6.00;;
52015;SDS011;38032;53.326;6.472;2023-04-01T17:30:03;8.65;;;5.82;;
52015;SDS011;38032;53.326;6.472;2023-04-01T17:32:38;11.32;;;5.63;;
52015;SDS011;38032;53.326;6.472;2023-04-01T17:40:40;10.65;;;5.22;;
52015;SDS011;38032;53.326;6.472;2023-04-01T17:43:30;12.80;;;5.78;;
52015;SDS011;38032;53.326;6.472;2023-04-01T17:46:19;11.40;;;5.75;;
52015;SDS011;38032;53.326;6.472;2023-04-01T17:49:12;10.02;;;5.15;;
52015;SDS011;38032;53.326;6.472;2023-04-01T17:54:53;12.18;;;5.90;;
52015;SDS011;38032;53.326;6.472;2023-04-01T18:00:14;10.25;;;4.97;;
52015;SDS011;38032;53.326;6.472;2023-04-01T18:13:52;12.77;;;6.40;;
52015;SDS011;38032;53.326;6.472;2023-04-01T18:16:29;17.13;;;6.90;;
52015;SDS011;38032;53.326;6.472;2023-04-01T18:19:09;11.35;;;5.90;;
52015;SDS011;38032;53.326;6.472;2023-04-01T18:21:52;11.82;;;5.63;;
52015;SDS011;38032;53.326;6.472;2023-04-01T18:24:30;13.10;;;5.85;;
52015;SDS011;38032;53.326;6.472;2023-04-01T18:27:03;11.18;;;5.82;;
52015;SDS011;38032;53.326;6.472;2023-04-01T18:29:39;10.43;;;5.88;;
52015;SDS011;38032;53.326;6.472;2023-04-01T18:32:22;14.95;;;6.20;;
52015;SDS011;38032;53.326;6.472;2023-04-01T18:37:44;10.68;;;5.25;;
52015;SDS011;38032;53.326;6.472;2023-04-01T18:43:02;10.23;;;5.78;;
52015;SDS011;38032;53.326;6.472;2023-04-01T18:45:33;11.52;;;6.50;;
52015;SDS011;38032;53.326;6.472;2023-04-01T18:48:30;14.60;;;6.53;;
52015;SDS011;38032;53.326;6.472;2023-04-01T18:53:48;10.98;;;6.00;;
52015;SDS011;38032;53.326;6.472;2023-04-01T18:56:29;11.52;;;5.38;;
52015;SDS011;38032;53.326;6.472;2023-04-01T18:59:05;11.77;;;5.75;;
52015;SDS011;38032;53.326;6.472;2023-04-01T19:01:42;10.02;;;5.50;;
52015;SDS011;38032;53.326;6.472;2023-04-01T19:04:33;9.10;;;5.00;;
52015;SDS011;38032;53.326;6.472;2023-04-01T19:07:26;13.40;;;6.05;;
52015;SDS011;38032;53.326;6.472;2023-04-01T19:18:16;11.57;;;6.30;;
52015;SDS011;38032;53.326;6.472;2023-04-01T19:21:09;13.25;;;6.32;;
52015;SDS011;38032;53.326;6.472;2023-04-01T19:26:37;13.18;;;6.95;;
52015;SDS011;38032;53.326;6.472;2023-04-01T19:31:52;10.57;;;6.32;;
52015;SDS011;38032;53.326;6.472;2023-04-01T19:34:37;12.15;;;6.35;;
52015;SDS011;38032;53.326;6.472;2023-04-01T19:37:22;12.07;;;6.28;;
52015;SDS011;38032;53.326;6.472;2023-04-01T19:45:26;10.98;;;6.43;;
52015;SDS011;38032;53.326;6.472;2023-04-01T19:51:06;16.23;;;6.22;;
52015;SDS011;38032;53.326;6.472;2023-04-01T19:58:49;13.88;;;5.70;;
52015;SDS011;38032;53.326;6.472;2023-04-01T20:01:22;13.60;;;6.22;;
52015;SDS011;38032;53.326;6.472;2023-04-01T20:04:03;10.95;;;6.13;;
52015;SDS011;38032;53.326;6.472;2023-04-01T20:06:43;14.23;;;6.07;;
52015;SDS011;38032;53.326;6.472;2023-04-01T20:09:26;10.05;;;5.68;;
52015;SDS011;38032;53.326;6.472;2023-04-01T20:11:59;10.50;;;6.10;;
52015;SDS011;38032;53.326;6.472;2023-04-01T20:27:57;10.75;;;5.20;;
52015;SDS011;38032;53.326;6.472;2023-04-01T20:33:06;9.40;;;5.07;;
52015;SDS011;38032;53.326;6.472;2023-04-01T20:35:57;8.05;;;4.78;;
52015;SDS011;38032;53.326;6.472;2023-04-01T20:38:55;9.88;;;5.20;;
52015;SDS011;38032;53.326;6.472;2023-04-01T20:49:33;8.10;;;4.60;;
52015;SDS011;38032;53.326;6.472;2023-04-01T20:54:40;10.60;;;4.97;;
52015;SDS011;38032;53.326;6.472;2023-04-01T20:57:36;9.15;;;5.03;;
52015;SDS011;38032;53.326;6.472;2023-04-01T21:00:28;10.70;;;4.80;;
52015;SDS011;38032;53.326;6.472;2023-04-01T21:08:25;11.02;;;4.60;;
52015;SDS011;38032;53.326;6.472;2023-04-01T21:11:04;9.25;;;4.72;;
52015;SDS011;38032;53.326;6.472;2023-04-01T21:13:47;9.80;;;4.75;;
52015;SDS011;38032;53.326;6.472;2023-04-01T21:16:22;15.82;;;5.50;;
52015;SDS011;38032;53.326;6.472;2023-04-01T21:19:16;11.05;;;4.32;;
52015;SDS011;38032;53.326;6.472;2023-04-01T21:22:10;8.30;;;4.78;;